Brill, Wisconsin
Current Conditions -  °F | °C
As of 12:55 AM on Friday 28 Nov 2014 (Local Time) from KRPD Reporting Station
Light Snow Light Snow  
Wind Chill: -5°   Ceiling: 2200
Heat Index:   Visibility: 2.5mi
Dew Point:   Wind: 8mph
Humidity: 75%   Direction: 160°SSE
Pressure: 30.26"   Gusts: NA
Location:  45.6°N, 91.67°W
Report Text: KRPD 280655Z AUTO 16007KT 2 1/2SM -SN BKN022 BKN032 OVC044 M13/M17 A3026 RMK AO2 T11351170
Loading
Personal Weather Stations






























Interactive Weather Map New forecast layout! Learn more

10-Day Weather Forecast

Advertisements
Track Severe Weather on mobile